sensor_id;sensor_type;location;lat;lon;timestamp;P1;durP1;ratioP1;P2;durP2;ratioP2
78670;SDS011;68277;52.724;6.516;2023-09-18T00:02:20;6.70;;;4.95;;
78670;SDS011;68277;52.724;6.516;2023-09-18T00:04:46;5.35;;;3.42;;
78670;SDS011;68277;52.724;6.516;2023-09-18T00:07:11;6.65;;;3.78;;
78670;SDS011;68277;52.724;6.516;2023-09-18T00:09:37;7.75;;;4.35;;
78670;SDS011;68277;52.724;6.516;2023-09-18T00:12:03;5.65;;;3.92;;
78670;SDS011;68277;52.724;6.516;2023-09-18T00:14:29;6.07;;;3.95;;
78670;SDS011;68277;52.724;6.516;2023-09-18T00:16:54;7.40;;;4.43;;
78670;SDS011;68277;52.724;6.516;2023-09-18T00:19:22;6.20;;;4.55;;
78670;SDS011;68277;52.724;6.516;2023-09-18T00:21:48;7.82;;;4.50;;
78670;SDS011;68277;52.724;6.516;2023-09-18T00:24:14;5.60;;;3.00;;
78670;SDS011;68277;52.724;6.516;2023-09-18T00:26:44;6.97;;;4.50;;
78670;SDS011;68277;52.724;6.516;2023-09-18T00:29:14;5.45;;;3.78;;
78670;SDS011;68277;52.724;6.516;2023-09-18T00:31:39;6.85;;;4.32;;
78670;SDS011;68277;52.724;6.516;2023-09-18T00:34:05;7.70;;;4.45;;
78670;SDS011;68277;52.724;6.516;2023-09-18T00:36:30;7.55;;;4.80;;
78670;SDS011;68277;52.724;6.516;2023-09-18T00:38:56;7.43;;;4.15;;
78670;SDS011;68277;52.724;6.516;2023-09-18T00:41:21;7.28;;;3.92;;
78670;SDS011;68277;52.724;6.516;2023-09-18T00:43:47;5.88;;;3.85;;
78670;SDS011;68277;52.724;6.516;2023-09-18T00:46:13;7.53;;;4.55;;
78670;SDS011;68277;52.724;6.516;2023-09-18T00:48:39;7.82;;;4.97;;
78670;SDS011;68277;52.724;6.516;2023-09-18T00:51:08;11.88;;;5.90;;
78670;SDS011;68277;52.724;6.516;2023-09-18T00:53:35;10.27;;;5.25;;
78670;SDS011;68277;52.724;6.516;2023-09-18T00:56:05;7.20;;;4.78;;
78670;SDS011;68277;52.724;6.516;2023-09-18T00:58:32;7.60;;;5.13;;
78670;SDS011;68277;52.724;6.516;2023-09-18T01:00:58;6.85;;;4.72;;
78670;SDS011;68277;52.724;6.516;2023-09-18T01:03:25;8.60;;;5.40;;
78670;SDS011;68277;52.724;6.516;2023-09-18T01:05:50;8.35;;;4.55;;
78670;SDS011;68277;52.724;6.516;2023-09-18T01:08:16;5.60;;;3.85;;
78670;SDS011;68277;52.724;6.516;2023-09-18T01:10:53;10.52;;;5.75;;
78670;SDS011;68277;52.724;6.516;2023-09-18T01:13:38;8.85;;;6.10;;
78670;SDS011;68277;52.724;6.516;2023-09-18T01:16:27;6.93;;;4.53;;
78670;SDS011;68277;52.724;6.516;2023-09-18T01:19:01;12.82;;;7.15;;
78670;SDS011;68277;52.724;6.516;2023-09-18T01:21:28;6.82;;;4.75;;
78670;SDS011;68277;52.724;6.516;2023-09-18T01:23:54;8.10;;;5.25;;
78670;SDS011;68277;52.724;6.516;2023-09-18T01:26:20;9.57;;;5.97;;
78670;SDS011;68277;52.724;6.516;2023-09-18T01:31:13;6.40;;;4.50;;
78670;SDS011;68277;52.724;6.516;2023-09-18T01:33:38;13.20;;;8.73;;
78670;SDS011;68277;52.724;6.516;2023-09-18T01:36:06;9.35;;;6.55;;
78670;SDS011;68277;52.724;6.516;2023-09-18T01:38:33;9.52;;;6.18;;
78670;SDS011;68277;52.724;6.516;2023-09-18T01:41:00;10.98;;;7.13;;
78670;SDS011;68277;52.724;6.516;2023-09-18T01:43:26;11.57;;;7.32;;
78670;SDS011;68277;52.724;6.516;2023-09-18T01:45:52;16.00;;;8.88;;
78670;SDS011;68277;52.724;6.516;2023-09-18T01:48:18;7.45;;;4.80;;
78670;SDS011;68277;52.724;6.516;2023-09-18T01:50:44;15.77;;;9.00;;
78670;SDS011;68277;52.724;6.516;2023-09-18T01:53:10;9.88;;;6.22;;
78670;SDS011;68277;52.724;6.516;2023-09-18T01:55:37;6.32;;;4.47;;
78670;SDS011;68277;52.724;6.516;2023-09-18T01:58:03;15.60;;;9.00;;
78670;SDS011;68277;52.724;6.516;2023-09-18T02:00:29;12.52;;;6.55;;
78670;SDS011;68277;52.724;6.516;2023-09-18T02:02:54;10.13;;;6.97;;
78670;SDS011;68277;52.724;6.516;2023-09-18T02:05:20;10.77;;;6.80;;
78670;SDS011;68277;52.724;6.516;2023-09-18T02:07:45;9.05;;;5.82;;
78670;SDS011;68277;52.724;6.516;2023-09-18T02:10:11;11.85;;;7.18;;
78670;SDS011;68277;52.724;6.516;2023-09-18T02:12:39;7.50;;;5.10;;
78670;SDS011;68277;52.724;6.516;2023-09-18T02:15:05;7.85;;;5.63;;
78670;SDS011;68277;52.724;6.516;2023-09-18T02:17:32;8.93;;;4.95;;
78670;SDS011;68277;52.724;6.516;2023-09-18T02:19:58;9.13;;;5.93;;
78670;SDS011;68277;52.724;6.516;2023-09-18T02:22:26;10.05;;;5.72;;
78670;SDS011;68277;52.724;6.516;2023-09-18T02:24:51;8.68;;;5.93;;
78670;SDS011;68277;52.724;6.516;2023-09-18T02:29:48;7.20;;;5.45;;
78670;SDS011;68277;52.724;6.516;2023-09-18T02:32:15;14.45;;;9.18;;
78670;SDS011;68277;52.724;6.516;2023-09-18T02:34:40;13.30;;;8.35;;
78670;SDS011;68277;52.724;6.516;2023-09-18T02:37:06;11.02;;;6.85;;
78670;SDS011;68277;52.724;6.516;2023-09-18T02:39:31;14.25;;;7.68;;
78670;SDS011;68277;52.724;6.516;2023-09-18T02:41:58;14.18;;;8.07;;
78670;SDS011;68277;52.724;6.516;2023-09-18T02:44:23;12.23;;;7.88;;
78670;SDS011;68277;52.724;6.516;2023-09-18T02:46:49;9.43;;;6.75;;
78670;SDS011;68277;52.724;6.516;2023-09-18T02:49:14;10.77;;;8.02;;
78670;SDS011;68277;52.724;6.516;2023-09-18T02:51:40;13.63;;;8.75;;
78670;SDS011;68277;52.724;6.516;2023-09-18T02:54:05;9.98;;;6.65;;
78670;SDS011;68277;52.724;6.516;2023-09-18T02:56:31;17.10;;;8.68;;
78670;SDS011;68277;52.724;6.516;2023-09-18T02:58:57;14.32;;;8.15;;
78670;SDS011;68277;52.724;6.516;2023-09-18T03:01:23;9.52;;;5.10;;
78670;SDS011;68277;52.724;6.516;2023-09-18T03:03:48;10.48;;;6.78;;
78670;SDS011;68277;52.724;6.516;2023-09-18T03:06:14;12.35;;;8.02;;
78670;SDS011;68277;52.724;6.516;2023-09-18T03:08:41;10.07;;;6.50;;
78670;SDS011;68277;52.724;6.516;2023-09-18T03:11:10;15.73;;;8.38;;
78670;SDS011;68277;52.724;6.516;2023-09-18T03:13:37;10.50;;;7.63;;
78670;SDS011;68277;52.724;6.516;2023-09-18T03:16:02;9.85;;;5.93;;
78670;SDS011;68277;52.724;6.516;2023-09-18T03:18:28;10.43;;;5.57;;
78670;SDS011;68277;52.724;6.516;2023-09-18T03:20:54;13.75;;;8.77;;
78670;SDS011;68277;52.724;6.516;2023-09-18T03:23:20;11.43;;;7.22;;
78670;SDS011;68277;52.724;6.516;2023-09-18T03:25:50;9.80;;;5.22;;
78670;SDS011;68277;52.724;6.516;2023-09-18T03:28:16;11.18;;;6.97;;
78670;SDS011;68277;52.724;6.516;2023-09-18T03:33:09;5.63;;;3.42;;
78670;SDS011;68277;52.724;6.516;2023-09-18T03:35:44;6.85;;;5.05;;
78670;SDS011;68277;52.724;6.516;2023-09-18T03:38:11;7.80;;;5.22;;
78670;SDS011;68277;52.724;6.516;2023-09-18T03:40:37;11.18;;;7.03;;
78670;SDS011;68277;52.724;6.516;2023-09-18T03:43:03;10.82;;;6.43;;
78670;SDS011;68277;52.724;6.516;2023-09-18T03:45:29;9.95;;;6.35;;
78670;SDS011;68277;52.724;6.516;2023-09-18T03:47:54;6.78;;;5.28;;
78670;SDS011;68277;52.724;6.516;2023-09-18T03:50:20;9.25;;;5.03;;
78670;SDS011;68277;52.724;6.516;2023-09-18T03:52:45;7.90;;;5.50;;
78670;SDS011;68277;52.724;6.516;2023-09-18T03:55:14;10.20;;;5.60;;
78670;SDS011;68277;52.724;6.516;2023-09-18T03:57:41;5.75;;;4.25;;
78670;SDS011;68277;52.724;6.516;2023-09-18T04:00:07;8.55;;;5.20;;
78670;SDS011;68277;52.724;6.516;2023-09-18T04:02:39;9.43;;;5.45;;
78670;SDS011;68277;52.724;6.516;2023-09-18T04:05:05;7.25;;;4.25;;
78670;SDS011;68277;52.724;6.516;2023-09-18T04:07:32;11.48;;;6.32;;
78670;SDS011;68277;52.724;6.516;2023-09-18T04:09:59;11.25;;;7.65;;
78670;SDS011;68277;52.724;6.516;2023-09-18T04:12:25;7.40;;;4.65;;
78670;SDS011;68277;52.724;6.516;2023-09-18T04:14:50;10.65;;;6.15;;
78670;SDS011;68277;52.724;6.516;2023-09-18T04:17:16;5.75;;;4.07;;
78670;SDS011;68277;52.724;6.516;2023-09-18T04:19:43;8.43;;;4.78;;
78670;SDS011;68277;52.724;6.516;2023-09-18T04:22:09;5.22;;;3.80;;
78670;SDS011;68277;52.724;6.516;2023-09-18T04:24:37;7.13;;;3.83;;
78670;SDS011;68277;52.724;6.516;2023-09-18T04:27:03;6.43;;;4.22;;
78670;SDS011;68277;52.724;6.516;2023-09-18T04:29:29;7.55;;;5.07;;
78670;SDS011;68277;52.724;6.516;2023-09-18T04:31:54;6.55;;;4.55;;
78670;SDS011;68277;52.724;6.516;2023-09-18T04:34:20;6.50;;;3.83;;
78670;SDS011;68277;52.724;6.516;2023-09-18T04:36:47;4.80;;;3.13;;
78670;SDS011;68277;52.724;6.516;2023-09-18T04:39:13;7.82;;;4.78;;
78670;SDS011;68277;52.724;6.516;2023-09-18T04:41:39;6.35;;;4.20;;
78670;SDS011;68277;52.724;6.516;2023-09-18T04:44:05;8.75;;;4.78;;
78670;SDS011;68277;52.724;6.516;2023-09-18T04:46:38;6.07;;;3.60;;
78670;SDS011;68277;52.724;6.516;2023-09-18T04:49:09;7.13;;;4.55;;
78670;SDS011;68277;52.724;6.516;2023-09-18T04:54:02;3.92;;;3.13;;
78670;SDS011;68277;52.724;6.516;2023-09-18T04:56:30;7.88;;;4.28;;
78670;SDS011;68277;52.724;6.516;2023-09-18T04:58:56;7.03;;;4.10;;
78670;SDS011;68277;52.724;6.516;2023-09-18T05:01:23;7.20;;;3.65;;
78670;SDS011;68277;52.724;6.516;2023-09-18T05:03:50;7.20;;;4.22;;
78670;SDS011;68277;52.724;6.516;2023-09-18T05:06:16;5.97;;;3.40;;
78670;SDS011;68277;52.724;6.516;2023-09-18T05:08:43;7.93;;;4.95;;
78670;SDS011;68277;52.724;6.516;2023-09-18T05:11:09;6.95;;;5.05;;
78670;SDS011;68277;52.724;6.516;2023-09-18T05:13:35;10.55;;;5.30;;
78670;SDS011;68277;52.724;6.516;2023-09-18T05:16:00;8.25;;;4.90;;
78670;SDS011;68277;52.724;6.516;2023-09-18T05:18:26;7.90;;;4.50;;
78670;SDS011;68277;52.724;6.516;2023-09-18T05:20:51;10.25;;;4.85;;
78670;SDS011;68277;52.724;6.516;2023-09-18T05:23:17;5.72;;;3.85;;
78670;SDS011;68277;52.724;6.516;2023-09-18T05:25:43;6.68;;;4.47;;
78670;SDS011;68277;52.724;6.516;2023-09-18T05:28:09;8.85;;;5.45;;
78670;SDS011;68277;52.724;6.516;2023-09-18T05:30:35;7.20;;;4.05;;
78670;SDS011;68277;52.724;6.516;2023-09-18T05:33:03;7.20;;;3.75;;
78670;SDS011;68277;52.724;6.516;2023-09-18T05:35:30;5.72;;;4.07;;
78670;SDS011;68277;52.724;6.516;2023-09-18T05:37:57;8.02;;;4.95;;
78670;SDS011;68277;52.724;6.516;2023-09-18T05:42:55;4.95;;;3.50;;
78670;SDS011;68277;52.724;6.516;2023-09-18T05:45:22;7.90;;;5.22;;
78670;SDS011;68277;52.724;6.516;2023-09-18T05:47:48;7.43;;;5.28;;
78670;SDS011;68277;52.724;6.516;2023-09-18T05:50:15;6.82;;;3.63;;
78670;SDS011;68277;52.724;6.516;2023-09-18T05:52:45;11.73;;;5.75;;
78670;SDS011;68277;52.724;6.516;2023-09-18T05:55:12;6.85;;;3.55;;
78670;SDS011;68277;52.724;6.516;2023-09-18T05:57:39;7.15;;;4.47;;
78670;SDS011;68277;52.724;6.516;2023-09-18T06:00:05;6.13;;;4.70;;
78670;SDS011;68277;52.724;6.516;2023-09-18T06:02:37;8.80;;;5.25;;
78670;SDS011;68277;52.724;6.516;2023-09-18T06:05:02;8.32;;;5.25;;
78670;SDS011;68277;52.724;6.516;2023-09-18T06:07:28;5.75;;;3.50;;
78670;SDS011;68277;52.724;6.516;2023-09-18T06:09:55;5.43;;;3.80;;
78670;SDS011;68277;52.724;6.516;2023-09-18T06:12:22;11.50;;;4.07;;
78670;SDS011;68277;52.724;6.516;2023-09-18T06:14:47;5.13;;;3.00;;
78670;SDS011;68277;52.724;6.516;2023-09-18T06:17:14;10.88;;;6.10;;
78670;SDS011;68277;52.724;6.516;2023-09-18T06:19:41;9.07;;;5.13;;
78670;SDS011;68277;52.724;6.516;2023-09-18T06:22:07;10.40;;;4.20;;
78670;SDS011;68277;52.724;6.516;2023-09-18T06:24:33;9.35;;;4.30;;
78670;SDS011;68277;52.724;6.516;2023-09-18T06:26:59;7.95;;;3.63;;
78670;SDS011;68277;52.724;6.516;2023-09-18T06:29:25;10.75;;;6.43;;
78670;SDS011;68277;52.724;6.516;2023-09-18T06:31:50;13.60;;;5.47;;
78670;SDS011;68277;52.724;6.516;2023-09-18T06:34:16;6.60;;;4.40;;
78670;SDS011;68277;52.724;6.516;2023-09-18T06:36:42;6.55;;;4.40;;
78670;SDS011;68277;52.724;6.516;2023-09-18T06:39:07;6.57;;;4.38;;
78670;SDS011;68277;52.724;6.516;2023-09-18T06:41:37;17.10;;;7.30;;
78670;SDS011;68277;52.724;6.516;2023-09-18T06:44:03;10.88;;;6.43;;
78670;SDS011;68277;52.724;6.516;2023-09-18T06:46:29;12.90;;;7.05;;
78670;SDS011;68277;52.724;6.516;2023-09-18T06:48:55;17.02;;;6.57;;
78670;SDS011;68277;52.724;6.516;2023-09-18T06:51:21;16.05;;;8.10;;
78670;SDS011;68277;52.724;6.516;2023-09-18T06:53:48;17.17;;;8.18;;
78670;SDS011;68277;52.724;6.516;2023-09-18T06:56:13;16.15;;;9.70;;
78670;SDS011;68277;52.724;6.516;2023-09-18T06:58:39;13.98;;;8.15;;
78670;SDS011;68277;52.724;6.516;2023-09-18T07:01:04;12.00;;;7.53;;
78670;SDS011;68277;52.724;6.516;2023-09-18T07:03:32;17.88;;;8.48;;
78670;SDS011;68277;52.724;6.516;2023-09-18T07:06:00;15.10;;;6.88;;
78670;SDS011;68277;52.724;6.516;2023-09-18T07:08:26;12.45;;;6.72;;
78670;SDS011;68277;52.724;6.516;2023-09-18T07:10:51;10.70;;;5.93;;
78670;SDS011;68277;52.724;6.516;2023-09-18T07:13:17;13.85;;;5.40;;
78670;SDS011;68277;52.724;6.516;2023-09-18T07:15:43;12.40;;;7.72;;
78670;SDS011;68277;52.724;6.516;2023-09-18T07:18:10;10.40;;;6.50;;
78670;SDS011;68277;52.724;6.516;2023-09-18T07:20:48;14.35;;;6.80;;
78670;SDS011;68277;52.724;6.516;2023-09-18T07:23:13;12.15;;;6.15;;
78670;SDS011;68277;52.724;6.516;2023-09-18T07:25:39;15.40;;;8.57;;
78670;SDS011;68277;52.724;6.516;2023-09-18T07:28:06;12.65;;;6.63;;
78670;SDS011;68277;52.724;6.516;2023-09-18T07:30:31;9.00;;;5.55;;
78670;SDS011;68277;52.724;6.516;2023-09-18T07:32:58;9.63;;;5.35;;
78670;SDS011;68277;52.724;6.516;2023-09-18T07:35:25;8.23;;;5.55;;
78670;SDS011;68277;52.724;6.516;2023-09-18T07:37:51;12.23;;;6.70;;
78670;SDS011;68277;52.724;6.516;2023-09-18T07:40:17;11.95;;;6.18;;
78670;SDS011;68277;52.724;6.516;2023-09-18T07:42:42;10.82;;;5.90;;
78670;SDS011;68277;52.724;6.516;2023-09-18T07:45:09;20.17;;;9.45;;
78670;SDS011;68277;52.724;6.516;2023-09-18T07:47:36;14.57;;;6.90;;
78670;SDS011;68277;52.724;6.516;2023-09-18T07:50:02;10.80;;;5.22;;
78670;SDS011;68277;52.724;6.516;2023-09-18T07:52:28;13.00;;;7.13;;
78670;SDS011;68277;52.724;6.516;2023-09-18T07:54:54;11.57;;;5.97;;
78670;SDS011;68277;52.724;6.516;2023-09-18T07:57:21;10.43;;;6.40;;
78670;SDS011;68277;52.724;6.516;2023-09-18T07:59:51;17.38;;;8.05;;
78670;SDS011;68277;52.724;6.516;2023-09-18T08:02:16;10.95;;;6.00;;
78670;SDS011;68277;52.724;6.516;2023-09-18T08:07:08;13.23;;;7.38;;
78670;SDS011;68277;52.724;6.516;2023-09-18T08:09:34;8.70;;;4.57;;
78670;SDS011;68277;52.724;6.516;2023-09-18T08:12:04;10.95;;;6.30;;
78670;SDS011;68277;52.724;6.516;2023-09-18T08:14:30;15.23;;;6.68;;
78670;SDS011;68277;52.724;6.516;2023-09-18T08:16:56;16.60;;;10.63;;
78670;SDS011;68277;52.724;6.516;2023-09-18T08:19:23;13.68;;;7.68;;
78670;SDS011;68277;52.724;6.516;2023-09-18T08:21:52;16.70;;;8.88;;
78670;SDS011;68277;52.724;6.516;2023-09-18T08:24:20;16.40;;;7.43;;
78670;SDS011;68277;52.724;6.516;2023-09-18T08:26:46;12.73;;;5.82;;
78670;SDS011;68277;52.724;6.516;2023-09-18T08:29:12;15.30;;;7.55;;
78670;SDS011;68277;52.724;6.516;2023-09-18T08:31:37;15.07;;;7.40;;
78670;SDS011;68277;52.724;6.516;2023-09-18T08:34:03;19.55;;;9.70;;
78670;SDS011;68277;52.724;6.516;2023-09-18T08:36:29;9.75;;;5.65;;
78670;SDS011;68277;52.724;6.516;2023-09-18T08:38:55;18.48;;;9.52;;
78670;SDS011;68277;52.724;6.516;2023-09-18T08:41:21;12.80;;;7.47;;
78670;SDS011;68277;52.724;6.516;2023-09-18T08:43:52;12.85;;;6.40;;
78670;SDS011;68277;52.724;6.516;2023-09-18T08:46:21;13.48;;;7.40;;
78670;SDS011;68277;52.724;6.516;2023-09-18T08:48:48;11.40;;;7.32;;
78670;SDS011;68277;52.724;6.516;2023-09-18T08:51:15;14.48;;;8.77;;
78670;SDS011;68277;52.724;6.516;2023-09-18T08:53:43;10.13;;;6.60;;
78670;SDS011;68277;52.724;6.516;2023-09-18T08:56:09;14.38;;;8.02;;
78670;SDS011;68277;52.724;6.516;2023-09-18T08:58:38;12.13;;;7.28;;
78670;SDS011;68277;52.724;6.516;2023-09-18T09:01:11;15.52;;;8.20;;
78670;SDS011;68277;52.724;6.516;2023-09-18T09:03:37;18.35;;;9.48;;
78670;SDS011;68277;52.724;6.516;2023-09-18T09:06:12;15.43;;;9.25;;
78670;SDS011;68277;52.724;6.516;2023-09-18T09:08:38;15.07;;;7.50;;
78670;SDS011;68277;52.724;6.516;2023-09-18T09:11:04;16.33;;;8.98;;
78670;SDS011;68277;52.724;6.516;2023-09-18T09:13:35;12.27;;;7.93;;
78670;SDS011;68277;52.724;6.516;2023-09-18T09:16:02;13.68;;;8.30;;
78670;SDS011;68277;52.724;6.516;2023-09-18T09:18:30;15.88;;;7.40;;
78670;SDS011;68277;52.724;6.516;2023-09-18T09:21:02;11.98;;;8.25;;
78670;SDS011;68277;52.724;6.516;2023-09-18T09:23:44;15.52;;;8.52;;
78670;SDS011;68277;52.724;6.516;2023-09-18T09:26:17;13.05;;;8.45;;
78670;SDS011;68277;52.724;6.516;2023-09-18T09:28:44;12.25;;;8.25;;
78670;SDS011;68277;52.724;6.516;2023-09-18T09:31:10;15.25;;;8.55;;
78670;SDS011;68277;52.724;6.516;2023-09-18T09:33:37;16.88;;;7.80;;
78670;SDS011;68277;52.724;6.516;2023-09-18T09:36:04;10.43;;;6.13;;
78670;SDS011;68277;52.724;6.516;2023-09-18T09:38:31;9.68;;;6.97;;
78670;SDS011;68277;52.724;6.516;2023-09-18T09:40:59;15.75;;;7.63;;
78670;SDS011;68277;52.724;6.516;2023-09-18T09:43:30;10.77;;;6.38;;
78670;SDS011;68277;52.724;6.516;2023-09-18T09:46:00;8.80;;;6.18;;
78670;SDS011;68277;52.724;6.516;2023-09-18T09:48:26;9.32;;;5.80;;
78670;SDS011;68277;52.724;6.516;2023-09-18T09:50:57;8.60;;;5.78;;
78670;SDS011;68277;52.724;6.516;2023-09-18T09:53:44;7.40;;;5.00;;
78670;SDS011;68277;52.724;6.516;2023-09-18T09:56:13;8.23;;;5.38;;
78670;SDS011;68277;52.724;6.516;2023-09-18T09:58:40;6.63;;;4.40;;
78670;SDS011;68277;52.724;6.516;2023-09-18T10:01:09;6.97;;;4.28;;
78670;SDS011;68277;52.724;6.516;2023-09-18T10:03:44;8.90;;;5.07;;
78670;SDS011;68277;52.724;6.516;2023-09-18T10:06:10;7.38;;;4.63;;
78670;SDS011;68277;52.724;6.516;2023-09-18T10:08:39;8.18;;;4.53;;
78670;SDS011;68277;52.724;6.516;2023-09-18T10:11:06;8.52;;;5.07;;
78670;SDS011;68277;52.724;6.516;2023-09-18T10:13:55;6.38;;;4.03;;
78670;SDS011;68277;52.724;6.516;2023-09-18T10:16:30;5.35;;;4.07;;
78670;SDS011;68277;52.724;6.516;2023-09-18T10:19:11;7.53;;;4.32;;
78670;SDS011;68277;52.724;6.516;2023-09-18T10:21:53;6.18;;;4.45;;
78670;SDS011;68277;52.724;6.516;2023-09-18T10:24:33;5.78;;;3.40;;
78670;SDS011;68277;52.724;6.516;2023-09-18T10:27:03;8.70;;;3.85;;
78670;SDS011;68277;52.724;6.516;2023-09-18T10:29:31;6.28;;;3.97;;
78670;SDS011;68277;52.724;6.516;2023-09-18T10:31:59;4.47;;;3.72;;
78670;SDS011;68277;52.724;6.516;2023-09-18T10:34:30;5.53;;;3.05;;
78670;SDS011;68277;52.724;6.516;2023-09-18T10:36:57;5.15;;;3.38;;
78670;SDS011;68277;52.724;6.516;2023-09-18T10:39:23;6.88;;;3.42;;
78670;SDS011;68277;52.724;6.516;2023-09-18T10:41:52;5.00;;;2.80;;
78670;SDS011;68277;52.724;6.516;2023-09-18T10:44:19;5.35;;;3.10;;
78670;SDS011;68277;52.724;6.516;2023-09-18T10:46:48;4.13;;;3.08;;
78670;SDS011;68277;52.724;6.516;2023-09-18T10:49:15;3.78;;;2.53;;
78670;SDS011;68277;52.724;6.516;2023-09-18T10:54:11;3.70;;;2.80;;
78670;SDS011;68277;52.724;6.516;2023-09-18T10:56:43;4.82;;;3.05;;
78670;SDS011;68277;52.724;6.516;2023-09-18T10:59:09;3.85;;;2.63;;
78670;SDS011;68277;52.724;6.516;2023-09-18T11:01:35;3.53;;;2.47;;
78670;SDS011;68277;52.724;6.516;2023-09-18T11:04:05;4.07;;;2.85;;
78670;SDS011;68277;52.724;6.516;2023-09-18T11:09:21;5.88;;;2.83;;
78670;SDS011;68277;52.724;6.516;2023-09-18T11:11:52;3.88;;;2.70;;
78670;SDS011;68277;52.724;6.516;2023-09-18T11:14:42;3.97;;;2.67;;
78670;SDS011;68277;52.724;6.516;2023-09-18T11:17:27;3.88;;;2.60;;
78670;SDS011;68277;52.724;6.516;2023-09-18T11:20:03;4.15;;;2.13;;
78670;SDS011;68277;52.724;6.516;2023-09-18T11:23:16;6.03;;;2.45;;
78670;SDS011;68277;52.724;6.516;2023-09-18T11:25:37;7.00;;;3.38;;
78670;SDS011;68277;52.724;6.516;2023-09-18T11:28:04;5.25;;;2.80;;
78670;SDS011;68277;52.724;6.516;2023-09-18T11:30:34;3.28;;;1.80;;
78670;SDS011;68277;52.724;6.516;2023-09-18T11:33:02;3.47;;;2.25;;
78670;SDS011;68277;52.724;6.516;2023-09-18T11:35:32;4.55;;;1.90;;
78670;SDS011;68277;52.724;6.516;2023-09-18T11:38:05;2.67;;;1.73;;
78670;SDS011;68277;52.724;6.516;2023-09-18T11:40:33;3.90;;;2.55;;
78670;SDS011;68277;52.724;6.516;2023-09-18T11:46:08;4.68;;;2.33;;
78670;SDS011;68277;52.724;6.516;2023-09-18T11:48:35;3.40;;;1.70;;
78670;SDS011;68277;52.724;6.516;2023-09-18T11:53:32;2.25;;;1.80;;
78670;SDS011;68277;52.724;6.516;2023-09-18T11:56:00;4.50;;;2.40;;
78670;SDS011;68277;52.724;6.516;2023-09-18T11:58:28;2.72;;;1.90;;
78670;SDS011;68277;52.724;6.516;2023-09-18T12:00:53;2.13;;;1.90;;
78670;SDS011;68277;52.724;6.516;2023-09-18T12:03:20;3.38;;;1.98;;
78670;SDS011;68277;52.724;6.516;2023-09-18T12:05:57;4.40;;;1.95;;
78670;SDS011;68277;52.724;6.516;2023-09-18T12:08:24;4.13;;;1.90;;
78670;SDS011;68277;52.724;6.516;2023-09-18T12:10:54;2.88;;;1.60;;
78670;SDS011;68277;52.724;6.516;2023-09-18T12:13:20;2.13;;;1.67;;
78670;SDS011;68277;52.724;6.516;2023-09-18T12:15:47;3.75;;;2.03;;
78670;SDS011;68277;52.724;6.516;2023-09-18T12:18:14;3.55;;;1.80;;
78670;SDS011;68277;52.724;6.516;2023-09-18T12:20:49;3.10;;;1.70;;
78670;SDS011;68277;52.724;6.516;2023-09-18T12:23:15;6.70;;;1.95;;
78670;SDS011;68277;52.724;6.516;2023-09-18T12:25:42;4.15;;;1.50;;
78670;SDS011;68277;52.724;6.516;2023-09-18T12:28:14;3.17;;;1.83;;
78670;SDS011;68277;52.724;6.516;2023-09-18T12:30:42;3.15;;;2.03;;
78670;SDS011;68277;52.724;6.516;2023-09-18T12:33:08;3.85;;;2.47;;
78670;SDS011;68277;52.724;6.516;2023-09-18T12:35:34;3.03;;;2.17;;
78670;SDS011;68277;52.724;6.516;2023-09-18T12:38:00;2.88;;;1.90;;
78670;SDS011;68277;52.724;6.516;2023-09-18T12:40:26;3.85;;;2.50;;
78670;SDS011;68277;52.724;6.516;2023-09-18T12:42:54;4.22;;;2.15;;
78670;SDS011;68277;52.724;6.516;2023-09-18T12:45:22;3.97;;;2.53;;
78670;SDS011;68277;52.724;6.516;2023-09-18T12:47:49;7.57;;;2.35;;
78670;SDS011;68277;52.724;6.516;2023-09-18T12:50:16;4.15;;;3.00;;
78670;SDS011;68277;52.724;6.516;2023-09-18T12:52:44;4.38;;;2.75;;
78670;SDS011;68277;52.724;6.516;2023-09-18T12:57:48;5.07;;;2.83;;
78670;SDS011;68277;52.724;6.516;2023-09-18T13:00:16;5.88;;;2.83;;
78670;SDS011;68277;52.724;6.516;2023-09-18T13:02:50;3.50;;;2.65;;
78670;SDS011;68277;52.724;6.516;2023-09-18T13:05:20;7.00;;;3.03;;
78670;SDS011;68277;52.724;6.516;2023-09-18T13:07:50;6.38;;;2.80;;
78670;SDS011;68277;52.724;6.516;2023-09-18T13:10:16;3.97;;;2.85;;
78670;SDS011;68277;52.724;6.516;2023-09-18T13:12:45;4.88;;;3.80;;
78670;SDS011;68277;52.724;6.516;2023-09-18T13:15:13;5.78;;;3.47;;
78670;SDS011;68277;52.724;6.516;2023-09-18T13:17:40;4.30;;;3.22;;
78670;SDS011;68277;52.724;6.516;2023-09-18T13:20:16;7.22;;;3.65;;
78670;SDS011;68277;52.724;6.516;2023-09-18T13:22:51;5.90;;;3.60;;
78670;SDS011;68277;52.724;6.516;2023-09-18T13:25:22;4.43;;;2.72;;
78670;SDS011;68277;52.724;6.516;2023-09-18T13:27:52;4.95;;;3.08;;
78670;SDS011;68277;52.724;6.516;2023-09-18T13:30:18;7.28;;;4.35;;
78670;SDS011;68277;52.724;6.516;2023-09-18T13:32:47;6.10;;;3.28;;
78670;SDS011;68277;52.724;6.516;2023-09-18T13:35:14;5.22;;;3.13;;
78670;SDS011;68277;52.724;6.516;2023-09-18T13:37:40;5.30;;;3.00;;
78670;SDS011;68277;52.724;6.516;2023-09-18T13:42:37;4.43;;;2.60;;
78670;SDS011;68277;52.724;6.516;2023-09-18T13:45:06;3.60;;;2.78;;
78670;SDS011;68277;52.724;6.516;2023-09-18T13:47:34;4.10;;;2.53;;
78670;SDS011;68277;52.724;6.516;2023-09-18T13:50:00;6.63;;;3.40;;
78670;SDS011;68277;52.724;6.516;2023-09-18T13:52:29;4.93;;;2.80;;
78670;SDS011;68277;52.724;6.516;2023-09-18T13:54:56;3.60;;;2.80;;
78670;SDS011;68277;52.724;6.516;2023-09-18T13:57:22;2.72;;;2.10;;
78670;SDS011;68277;52.724;6.516;2023-09-18T13:59:49;4.00;;;2.78;;
78670;SDS011;68277;52.724;6.516;2023-09-18T14:02:16;3.45;;;2.40;;
78670;SDS011;68277;52.724;6.516;2023-09-18T14:04:42;2.70;;;2.20;;
78670;SDS011;68277;52.724;6.516;2023-09-18T14:07:08;4.20;;;2.13;;
78670;SDS011;68277;52.724;6.516;2023-09-18T14:09:34;4.28;;;2.22;;
78670;SDS011;68277;52.724;6.516;2023-09-18T14:12:01;2.83;;;1.70;;
78670;SDS011;68277;52.724;6.516;2023-09-18T14:14:28;3.97;;;1.95;;
78670;SDS011;68277;52.724;6.516;2023-09-18T14:19:20;5.38;;;2.15;;
78670;SDS011;68277;52.724;6.516;2023-09-18T14:21:46;3.63;;;1.80;;
78670;SDS011;68277;52.724;6.516;2023-09-18T14:24:14;4.22;;;1.83;;
78670;SDS011;68277;52.724;6.516;2023-09-18T14:26:40;6.07;;;2.08;;
78670;SDS011;68277;52.724;6.516;2023-09-18T14:29:07;3.65;;;2.03;;
78670;SDS011;68277;52.724;6.516;2023-09-18T14:31:33;3.25;;;1.70;;
78670;SDS011;68277;52.724;6.516;2023-09-18T14:33:59;3.45;;;1.77;;
78670;SDS011;68277;52.724;6.516;2023-09-18T14:36:25;3.45;;;1.85;;
78670;SDS011;68277;52.724;6.516;2023-09-18T14:38:51;2.83;;;1.45;;
78670;SDS011;68277;52.724;6.516;2023-09-18T14:41:17;4.47;;;2.53;;
78670;SDS011;68277;52.724;6.516;2023-09-18T14:43:44;4.50;;;2.08;;
78670;SDS011;68277;52.724;6.516;2023-09-18T14:46:10;2.75;;;1.60;;
78670;SDS011;68277;52.724;6.516;2023-09-18T14:48:35;2.45;;;1.65;;
78670;SDS011;68277;52.724;6.516;2023-09-18T14:51:01;3.90;;;1.98;;
78670;SDS011;68277;52.724;6.516;2023-09-18T14:55:53;3.42;;;1.75;;
78670;SDS011;68277;52.724;6.516;2023-09-18T14:58:21;3.65;;;1.95;;
78670;SDS011;68277;52.724;6.516;2023-09-18T15:00:49;2.83;;;1.73;;
78670;SDS011;68277;52.724;6.516;2023-09-18T15:03:15;2.20;;;1.30;;
78670;SDS011;68277;52.724;6.516;2023-09-18T15:05:47;4.13;;;1.73;;
78670;SDS011;68277;52.724;6.516;2023-09-18T15:08:12;4.00;;;2.20;;
78670;SDS011;68277;52.724;6.516;2023-09-18T15:10:39;3.40;;;2.00;;
78670;SDS011;68277;52.724;6.516;2023-09-18T15:13:05;3.97;;;1.95;;
78670;SDS011;68277;52.724;6.516;2023-09-18T15:15:31;6.82;;;2.40;;
78670;SDS011;68277;52.724;6.516;2023-09-18T15:17:56;3.60;;;2.28;;
78670;SDS011;68277;52.724;6.516;2023-09-18T15:20:22;4.57;;;1.80;;
78670;SDS011;68277;52.724;6.516;2023-09-18T15:25:15;3.08;;;1.90;;